Farley, Iowa
Current Conditions -  °F | °C
As of 7:53 AM on Wednesday 22 Oct 2014 (Local Time) from KDBQ Reporting Station
Clear Clear  
Wind Chill: 32°   Ceiling: Unl
Heat Index: 36°   Visibility: 10mi
Dew Point: 34°   Wind: 5mph
Humidity: 93%   Direction: 120°ESE
Pressure: 30.32"   Gusts: NA
Location:  42.44°N, 91.01°W
Report Text: KDBQ 221253Z 12004KT 10SM CLR 02/01 A3032 RMK AO2 SLP277 T00220011
Loading
Personal Weather Stations






























Interactive Weather Map New forecast layout! Learn more

10-Day Weather Forecast

Advertisements
Track Severe Weather on mobile